Conakry, Guinea
Current Conditions -  °F | °C
As of 9:00 AM on Thursday 23 Oct 2014 (Local Time) from GGOV Reporting Station
Broken Clouds Broken Clouds  
Wind Chill: 82°   Ceiling: 25000
Heat Index: 92°   Visibility: 6mi
Dew Point: 79°   Wind: 7mph
Humidity: 89%   Direction: 270°W
Pressure: 29.94"   Gusts: NA
Location:  9.55°N, 13.67°W
Report Text: GGOV 230900Z 27006KT 9999 SCT014TCU BKN250 28/26 Q1014 NOSIG
Loading
Personal Weather Stations






























Interactive Weather Map
Tropical Storm Tracking
New forecast layout! Learn more

10-Day Weather Forecast

Advertisements
Track Severe Weather on mobile